Cokeville, WY (83114)

8:24 PM MDT on August 04, 2015 (GMT -0600)
APRSWXNET | | Change Station
CLOSE
Current Station
Personal Weather Station
Location: Bern, ID
Elevation: 5534 ft
Nearby Weather Stations

Elev 5534 ft 42.30 °N, 111.40 °W | Updated 27 minutes ago

Clear
Clear
73 °F
Feels Like 76 °F
N
4
Wind Variable Wind from West
Gusts 20.0 mph

Today
High -- | Low -- °F
--% Chance of Precip.
Yesterday
High -- | Low -- °F
Precip. -- in
6:19 AM 8:40 PM
Waning Gibbous, 72% visible
Pressure 30.18 in
Visibility 10.0 miles
Clouds Clear
Heat Index 76 °F
Dew Point 40 °F
Humidity 30%
Rainfall in
Snow Depth Not available.
UV 0 out of 12
Pollen 4.60 out of 12
Air Quality Not available.
Flu Activity Not available.
METAR KAFO 050215Z AUTO 17007KT 10SM CLR 18/11 A3018 RMK AO2 TSNO

More Conditions Fewer Conditions

Pressure 30.18 in
Visibility 10.0 miles
Clouds Clear
Heat Index 76 °F
Dew Point 40 °F
Humidity 30%
Rainfall in
Snow Depth Not available.
UV 0 out of 12
Pollen 4.60 out of 12
Air Quality Not available.
Flu Activity Not available.
METAR KAFO 050215Z AUTO 17007KT 10SM CLR 18/11 A3018 RMK AO2 TSNO

More Conditions Fewer Conditions

10-Day Weather Forecast

×

Almanac

Astronomy

Aug. 04, 2015 Rise Set
Actual Time
Civil Twilight
Nautical Twilight
Astronomical Twilight
Moon
Length of Visible Light
Length of Day
Tomorrow will be .
, % of the Moon is Illuminated

Today's Extremes

State Highs State Lows

Community

WunderPhotos

Upload Photos

1,844,084 photos uploaded!

WunderBlogs® & News

Nearby

Air Quality

  Air Quality AQ Index Pollutant
Not available.

Snow Depth

Station Depth Elevation

Earthquake Activity

City Distance Mag. Time & Date
Minimum magnitude displayed is 2.5.

Coastal Water Temperatures

Place Temperature

Stations

Nearby Weather Stations

Station Location Temp. Windchill Dew Point Humidity Wind Precip. Elev Updated Type